createdAt,value
2017-09-24T00:01:52.714Z,9.60
2017-09-24T00:04:20.179Z,9.50
2017-09-24T00:06:47.691Z,9.50
2017-09-24T00:09:15.230Z,9.40
2017-09-24T00:11:42.776Z,9.40
2017-09-24T00:14:11.560Z,9.50
2017-09-24T00:16:39.035Z,9.50
2017-09-24T00:19:07.316Z,9.50
2017-09-24T00:21:35.589Z,9.50
2017-09-24T00:24:03.823Z,9.40
2017-09-24T00:26:31.322Z,9.40
2017-09-24T00:28:59.552Z,9.30
2017-09-24T00:31:27.073Z,9.30
2017-09-24T00:33:55.335Z,9.30
2017-09-24T00:36:23.573Z,9.30
2017-09-24T00:38:51.051Z,9.30
2017-09-24T00:41:18.556Z,9.20
2017-09-24T00:43:46.066Z,8.80
2017-09-24T00:46:13.566Z,9.00
2017-09-24T00:48:41.076Z,9.00
2017-09-24T00:51:08.558Z,9.10
2017-09-24T00:53:36.038Z,9.10
2017-09-24T00:56:04.291Z,9.10
2017-09-24T00:58:32.541Z,9.10
2017-09-24T01:01:00.054Z,9.10
2017-09-24T01:03:27.523Z,9.00
2017-09-24T01:05:55.014Z,9.00
2017-09-24T01:08:22.525Z,8.90
2017-09-24T01:10:50.775Z,8.90
2017-09-24T01:13:18.287Z,8.90
2017-09-24T01:15:45.755Z,8.90
2017-09-24T01:18:13.274Z,8.90
2017-09-24T01:20:40.760Z,8.80
2017-09-24T01:23:08.274Z,8.40
2017-09-24T01:25:36.525Z,8.30
2017-09-24T01:28:04.037Z,8.30
2017-09-24T01:30:32.305Z,8.60
2017-09-24T01:33:00.586Z,8.60
2017-09-24T01:35:28.851Z,8.60
2017-09-24T01:37:57.076Z,8.60
2017-09-24T01:40:24.587Z,8.60
2017-09-24T01:42:52.827Z,8.60
2017-09-24T01:45:20.330Z,8.60
2017-09-24T01:47:47.800Z,8.60
2017-09-24T01:50:15.308Z,8.60
2017-09-24T01:52:42.779Z,8.60
2017-09-24T01:55:10.270Z,8.50
2017-09-24T01:57:37.779Z,8.50
2017-09-24T02:00:05.252Z,8.50
2017-09-24T02:02:32.770Z,8.50
2017-09-24T02:05:00.239Z,8.40
2017-09-24T02:07:27.722Z,8.40
2017-09-24T02:09:55.228Z,8.40
2017-09-24T02:12:22.688Z,8.30
2017-09-24T02:14:50.186Z,8.20
2017-09-24T02:17:17.667Z,8.10
2017-09-24T02:19:45.177Z,8.10
2017-09-24T02:22:12.655Z,8.10
2017-09-24T02:24:40.119Z,8.20
2017-09-24T02:27:07.638Z,8.20
2017-09-24T02:29:35.119Z,8.20
2017-09-24T02:32:02.588Z,8.20
2017-09-24T02:34:30.051Z,8.20
2017-09-24T02:36:57.548Z,8.10
2017-09-24T02:39:25.768Z,8.10
2017-09-24T02:41:53.267Z,8.00
2017-09-24T02:44:22.255Z,7.60
2017-09-24T02:46:49.758Z,7.60
2017-09-24T02:49:17.241Z,7.60
2017-09-24T02:51:44.710Z,7.60
2017-09-24T02:54:12.191Z,7.60
2017-09-24T02:56:39.663Z,7.60
2017-09-24T02:59:07.163Z,7.30
2017-09-24T03:01:34.631Z,7.20
2017-09-24T03:04:02.098Z,7.50
2017-09-24T03:06:29.611Z,7.50
2017-09-24T03:08:57.839Z,7.50
2017-09-24T03:11:25.345Z,7.50
2017-09-24T03:13:53.581Z,7.70
2017-09-24T03:16:21.088Z,7.60
2017-09-24T03:18:50.159Z,7.50
2017-09-24T03:21:17.628Z,7.50
2017-09-24T03:23:45.140Z,7.60
2017-09-24T03:26:12.598Z,7.60
2017-09-24T03:28:40.086Z,7.60
2017-09-24T03:31:08.326Z,7.60
2017-09-24T03:33:35.812Z,7.60
2017-09-24T03:36:03.331Z,7.60
2017-09-24T03:38:30.804Z,7.50
2017-09-24T03:40:58.293Z,7.60
2017-09-24T03:43:25.770Z,7.50
2017-09-24T03:45:53.270Z,7.50
2017-09-24T03:48:20.739Z,7.40
2017-09-24T03:50:48.222Z,7.40
2017-09-24T03:53:15.690Z,7.40
2017-09-24T03:55:43.161Z,7.40
2017-09-24T03:58:10.655Z,7.40
2017-09-24T04:00:38.159Z,7.40
2017-09-24T04:03:05.648Z,7.40
2017-09-24T04:05:33.870Z,7.30
2017-09-24T04:08:01.360Z,7.30
2017-09-24T04:10:28.841Z,7.30
2017-09-24T04:12:57.099Z,7.30
2017-09-24T04:15:25.347Z,7.30
2017-09-24T04:17:52.803Z,7.20
2017-09-24T04:20:20.291Z,7.30
2017-09-24T04:22:47.770Z,7.30
2017-09-24T04:25:16.046Z,7.10
2017-09-24T04:27:44.288Z,7.10
2017-09-24T04:30:11.744Z,7.10
2017-09-24T04:32:39.229Z,7.10
2017-09-24T04:35:06.681Z,7.10
2017-09-24T04:37:34.186Z,7.00
2017-09-24T04:40:01.647Z,7.00
2017-09-24T04:42:29.109Z,7.00
2017-09-24T04:44:56.596Z,7.00
2017-09-24T04:47:24.074Z,7.00
2017-09-24T04:49:51.534Z,7.00
2017-09-24T04:52:19.018Z,6.90
2017-09-24T04:54:46.492Z,6.90
2017-09-24T04:57:13.987Z,6.90
2017-09-24T04:59:41.496Z,6.90
2017-09-24T05:02:09.719Z,6.70
2017-09-24T05:04:37.219Z,6.60
2017-09-24T05:07:05.444Z,6.80
2017-09-24T05:09:32.946Z,6.70
2017-09-24T05:12:01.179Z,6.80
2017-09-24T05:14:28.638Z,6.80
2017-09-24T05:16:56.151Z,6.80
2017-09-24T05:19:24.372Z,6.80
2017-09-24T05:21:51.901Z,6.80
2017-09-24T05:24:19.390Z,6.80
2017-09-24T05:26:46.876Z,6.80
2017-09-24T05:29:14.340Z,6.80
2017-09-24T05:31:41.828Z,6.80
2017-09-24T05:34:10.087Z,6.80
2017-09-24T05:36:38.312Z,6.80
2017-09-24T05:39:05.805Z,6.80
2017-09-24T05:41:34.059Z,8.00
2017-09-24T05:44:01.550Z,8.10
2017-09-24T05:46:29.019Z,8.50
2017-09-24T05:48:57.317Z,8.60
2017-09-24T05:51:24.813Z,8.60
2017-09-24T05:53:52.307Z,8.80
2017-09-24T05:56:20.558Z,9.00
2017-09-24T05:58:48.055Z,8.90
2017-09-24T06:01:16.346Z,9.00
2017-09-24T06:03:43.812Z,9.00
2017-09-24T06:06:11.283Z,9.10
2017-09-24T06:08:38.791Z,9.10
2017-09-24T06:11:07.020Z,8.70
2017-09-24T06:13:34.509Z,8.60
2017-09-24T06:16:02.003Z,8.30
2017-09-24T06:18:29.462Z,8.80
2017-09-24T06:20:57.002Z,9.10
2017-09-24T06:23:25.264Z,9.30
2017-09-24T06:25:52.727Z,9.30
2017-09-24T06:28:21.001Z,9.30
2017-09-24T06:30:48.483Z,9.30
2017-09-24T06:33:16.756Z,9.30
2017-09-24T06:35:44.999Z,9.30
2017-09-24T06:38:12.517Z,9.30
2017-09-24T06:40:40.006Z,9.50
2017-09-24T06:43:07.527Z,9.50
2017-09-24T06:45:34.986Z,9.40
2017-09-24T06:48:02.503Z,9.40
2017-09-24T06:50:30.774Z,9.90
2017-09-24T06:52:58.293Z,9.90
2017-09-24T06:55:25.795Z,10.10
2017-09-24T06:57:53.277Z,10.00
2017-09-24T07:00:21.532Z,9.10
2017-09-24T07:02:49.021Z,9.10
2017-09-24T07:05:17.292Z,9.20
2017-09-24T07:07:45.545Z,9.10
2017-09-24T07:10:13.031Z,9.10
2017-09-24T07:12:41.291Z,9.20
2017-09-24T07:15:08.779Z,9.20
2017-09-24T07:17:36.280Z,9.30
2017-09-24T07:20:03.804Z,9.40
2017-09-24T07:22:31.304Z,9.30
2017-09-24T07:24:58.820Z,9.40
2017-09-24T07:27:26.341Z,9.50
2017-09-24T07:29:53.824Z,9.60
2017-09-24T07:32:21.313Z,9.80
2017-09-24T07:34:48.823Z,10.00
2017-09-24T07:37:17.128Z,10.20
2017-09-24T07:39:44.631Z,10.20
2017-09-24T07:42:12.140Z,10.20
2017-09-24T07:44:39.660Z,10.40
2017-09-24T07:47:07.172Z,10.40
2017-09-24T07:49:34.666Z,10.30
2017-09-24T07:52:02.178Z,10.30
2017-09-24T07:54:29.660Z,10.60
2017-09-24T07:56:57.178Z,10.70
2017-09-24T07:59:25.410Z,10.80
2017-09-24T08:01:52.920Z,10.80
2017-09-24T08:04:21.184Z,11.30
2017-09-24T08:06:48.652Z,11.30
2017-09-24T08:09:16.941Z,11.90
2017-09-24T08:11:45.171Z,11.60
2017-09-24T08:14:12.701Z,11.60
2017-09-24T08:16:40.188Z,11.80
2017-09-24T08:19:07.670Z,12.00
2017-09-24T08:21:35.157Z,12.30
2017-09-24T08:24:02.666Z,12.50
2017-09-24T08:26:30.171Z,12.90
2017-09-24T08:28:58.440Z,13.30
2017-09-24T08:31:26.713Z,13.20
2017-09-24T08:33:54.975Z,12.90
2017-09-24T08:36:22.477Z,12.90
2017-09-24T08:38:49.961Z,13.10
2017-09-24T08:41:17.501Z,13.30
2017-09-24T08:43:44.962Z,13.50
2017-09-24T08:46:12.455Z,13.30
2017-09-24T08:48:39.951Z,13.40
2017-09-24T08:51:07.446Z,13.90
2017-09-24T08:53:34.951Z,14.40
2017-09-24T08:56:03.217Z,13.90
2017-09-24T08:58:30.754Z,13.90
2017-09-24T09:00:58.230Z,13.80
2017-09-24T09:03:25.729Z,14.50
2017-09-24T09:05:53.210Z,14.70
2017-09-24T09:08:20.688Z,14.40
2017-09-24T09:10:48.208Z,14.50
2017-09-24T09:13:15.688Z,15.00
2017-09-24T09:15:43.175Z,15.50
2017-09-24T09:18:10.698Z,15.60
2017-09-24T09:20:38.193Z,15.60
2017-09-24T09:23:05.674Z,15.80
2017-09-24T09:25:33.991Z,16.00
2017-09-24T09:28:01.483Z,16.00
2017-09-24T09:30:28.972Z,16.10
2017-09-24T09:33:20.373Z,16.20
2017-09-24T09:35:47.884Z,16.00
2017-09-24T09:38:15.381Z,15.90
2017-09-24T09:40:43.107Z,16.10
2017-09-24T09:43:10.571Z,16.10
2017-09-24T09:45:49.760Z,16.30
2017-09-24T09:48:17.271Z,16.50
2017-09-24T09:50:45.161Z,16.50
2017-09-24T09:53:12.667Z,16.10
2017-09-24T09:55:40.961Z,16.60
2017-09-24T09:58:08.477Z,16.60
2017-09-24T10:00:36.843Z,16.50
2017-09-24T10:03:04.322Z,16.60
2017-09-24T10:05:31.836Z,16.50
2017-09-24T10:08:11.214Z,16.80
2017-09-24T10:10:38.738Z,17.10
2017-09-24T10:13:06.210Z,17.50
2017-09-24T10:15:33.751Z,17.70
2017-09-24T10:18:01.223Z,17.40
2017-09-24T10:20:28.712Z,17.30
2017-09-24T10:22:56.200Z,17.20
2017-09-24T10:25:23.687Z,17.10
2017-09-24T10:27:51.218Z,17.30
2017-09-24T10:30:30.530Z,17.30
2017-09-24T10:32:58.035Z,17.60
2017-09-24T10:35:25.510Z,17.40
2017-09-24T10:37:53.025Z,17.30
2017-09-24T10:40:20.524Z,17.20
2017-09-24T10:42:47.988Z,17.20
2017-09-24T10:45:15.513Z,17.20
2017-09-24T10:47:45.427Z,17.20
2017-09-24T10:50:12.949Z,16.70
2017-09-24T10:52:40.417Z,16.60
2017-09-24T10:55:08.705Z,16.70
2017-09-24T10:57:36.956Z,16.50
2017-09-24T11:00:04.428Z,16.50
2017-09-24T11:02:32.688Z,16.20
2017-09-24T11:05:00.183Z,16.20
2017-09-24T11:07:27.697Z,16.20
2017-09-24T11:09:55.188Z,16.10
2017-09-24T11:12:23.459Z,16.10
2017-09-24T11:14:51.700Z,16.10
2017-09-24T11:17:19.214Z,16.10
2017-09-24T11:19:46.725Z,16.30
2017-09-24T11:22:15.029Z,16.30
2017-09-24T11:24:42.531Z,16.30
2017-09-24T11:27:10.006Z,16.30
2017-09-24T11:29:37.525Z,16.30
2017-09-24T11:32:05.809Z,16.30
2017-09-24T11:34:33.498Z,16.30
2017-09-24T11:37:01.088Z,16.30
2017-09-24T11:39:30.632Z,16.20
2017-09-24T11:41:58.226Z,16.20
2017-09-24T11:44:25.748Z,16.10
2017-09-24T11:46:53.509Z,16.10
2017-09-24T11:49:21.044Z,16.10
2017-09-24T11:51:48.554Z,16.10
2017-09-24T11:54:16.076Z,16.00
2017-09-24T11:56:43.551Z,16.00
2017-09-24T11:59:11.916Z,16.20
2017-09-24T12:01:40.148Z,16.10
2017-09-24T12:04:07.659Z,16.10
2017-09-24T12:06:35.919Z,16.20
2017-09-24T12:09:04.408Z,16.20
2017-09-24T12:11:32.675Z,16.30
2017-09-24T12:14:00.168Z,16.30
2017-09-24T12:16:27.647Z,16.30
2017-09-24T12:18:56.728Z,16.40
2017-09-24T12:21:24.728Z,16.30
2017-09-24T12:23:53.149Z,16.30
2017-09-24T12:26:22.073Z,16.40
2017-09-24T12:28:49.539Z,16.30
2017-09-24T12:31:17.021Z,16.30
2017-09-24T12:33:44.530Z,16.20
2017-09-24T12:36:12.791Z,16.40
2017-09-24T12:38:41.057Z,16.40
2017-09-24T12:41:10.335Z,16.40
2017-09-24T12:43:38.410Z,16.40
2017-09-24T12:46:05.892Z,16.50
2017-09-24T12:48:33.530Z,16.60
2017-09-24T12:51:02.081Z,16.60
2017-09-24T12:53:30.071Z,16.70
2017-09-24T12:56:01.986Z,16.60
2017-09-24T12:58:30.224Z,16.40
2017-09-24T13:00:57.808Z,16.40
2017-09-24T13:03:25.277Z,16.30
2017-09-24T13:05:53.566Z,16.50
2017-09-24T13:08:21.809Z,16.30
2017-09-24T13:10:49.288Z,16.30
2017-09-24T13:13:17.552Z,16.40
2017-09-24T13:15:45.049Z,16.40
2017-09-24T13:18:12.586Z,16.30
2017-09-24T13:20:40.860Z,16.40
2017-09-24T13:23:09.128Z,16.40
2017-09-24T13:25:36.948Z,16.40
2017-09-24T13:28:04.469Z,16.40
2017-09-24T13:30:32.707Z,16.40
2017-09-24T13:33:00.187Z,16.40
2017-09-24T13:35:27.701Z,16.40
2017-09-24T13:37:55.179Z,16.20
2017-09-24T13:40:22.700Z,16.10
2017-09-24T13:42:50.179Z,16.10
2017-09-24T13:45:17.680Z,16.10
2017-09-24T13:47:45.940Z,16.20
2017-09-24T13:50:13.411Z,16.20
2017-09-24T13:52:40.959Z,16.20
2017-09-24T13:55:08.468Z,16.20
2017-09-24T13:57:36.069Z,16.20
2017-09-24T14:00:03.567Z,16.20
2017-09-24T14:02:31.812Z,16.20
2017-09-24T14:04:59.338Z,16.10
2017-09-24T14:07:26.860Z,16.30
2017-09-24T14:09:55.123Z,16.50
2017-09-24T14:12:22.593Z,16.40
2017-09-24T14:14:50.859Z,16.40
2017-09-24T14:17:18.368Z,16.40
2017-09-24T14:19:45.851Z,16.50
2017-09-24T14:22:13.501Z,16.40
2017-09-24T14:24:40.959Z,16.50
2017-09-24T14:27:08.468Z,16.50
2017-09-24T14:29:36.739Z,16.40
2017-09-24T14:32:04.272Z,16.40
2017-09-24T14:34:31.746Z,16.30
2017-09-24T14:36:59.259Z,16.20
2017-09-24T14:39:26.773Z,16.20
2017-09-24T14:41:54.247Z,16.20
2017-09-24T14:44:22.939Z,16.20
2017-09-24T14:46:51.262Z,16.20
2017-09-24T14:49:18.764Z,16.20
2017-09-24T14:51:48.113Z,16.10
2017-09-24T14:54:15.606Z,16.10
2017-09-24T14:56:43.104Z,16.10
2017-09-24T14:59:10.616Z,16.10
2017-09-24T15:01:38.133Z,16.00
2017-09-24T15:04:05.748Z,15.90
2017-09-24T15:06:33.223Z,15.90
2017-09-24T15:09:01.521Z,15.90
2017-09-24T15:11:28.998Z,15.90
2017-09-24T15:13:56.488Z,16.00
2017-09-24T15:16:23.984Z,16.00
2017-09-24T15:18:52.255Z,16.10
2017-09-24T15:21:21.134Z,16.10
2017-09-24T15:23:48.740Z,16.00
2017-09-24T15:26:16.358Z,16.00
2017-09-24T15:28:44.092Z,16.00
2017-09-24T15:31:12.371Z,15.90
2017-09-24T15:33:40.802Z,15.90
2017-09-24T15:36:09.073Z,15.80
2017-09-24T15:38:37.768Z,15.80
2017-09-24T15:41:06.982Z,15.70
2017-09-24T15:43:34.492Z,15.70
2017-09-24T15:46:06.331Z,15.60
2017-09-24T15:48:33.850Z,15.90
2017-09-24T15:51:01.747Z,16.00
2017-09-24T15:53:29.261Z,15.90
2017-09-24T15:55:58.020Z,15.90
2017-09-24T15:58:26.817Z,15.90
2017-09-24T16:00:54.353Z,15.80
2017-09-24T16:03:21.847Z,15.70
2017-09-24T16:05:49.314Z,15.70
2017-09-24T16:08:17.628Z,15.60
2017-09-24T16:10:46.002Z,15.60
2017-09-24T16:23:04.353Z,15.10
2017-09-24T16:25:31.861Z,15.10
2017-09-24T16:28:00.140Z,15.10
2017-09-24T16:30:27.648Z,15.10
2017-09-24T16:32:55.135Z,15.00
2017-09-24T16:35:24.410Z,14.90
2017-09-24T16:37:52.237Z,14.80
2017-09-24T16:40:19.716Z,14.90
2017-09-24T16:42:48.091Z,14.70
2017-09-24T16:45:16.160Z,14.70
2017-09-24T16:47:43.655Z,14.90
2017-09-24T16:50:11.150Z,14.70
2017-09-24T16:52:38.646Z,14.70
2017-09-24T16:55:06.170Z,14.80
2017-09-24T16:57:33.711Z,14.80
2017-09-24T17:00:01.975Z,14.80
2017-09-24T17:02:29.471Z,14.80
2017-09-24T17:04:56.967Z,14.80
2017-09-24T17:07:24.479Z,14.70
2017-09-24T17:09:51.967Z,14.50
2017-09-24T17:12:19.528Z,14.40
2017-09-24T17:14:47.026Z,14.30
2017-09-24T17:17:14.536Z,14.20
2017-09-24T17:19:42.995Z,14.20
2017-09-24T17:22:11.277Z,14.20
2017-09-24T17:24:39.702Z,14.20
2017-09-24T17:27:07.215Z,14.10
2017-09-24T17:29:35.495Z,14.10
2017-09-24T17:32:03.122Z,14.10
2017-09-24T17:34:30.648Z,14.00
2017-09-24T17:36:58.113Z,14.10
2017-09-24T17:39:25.617Z,14.00
2017-09-24T17:41:53.887Z,14.00
2017-09-24T17:44:22.162Z,14.00
2017-09-24T17:46:50.432Z,14.00
2017-09-24T17:49:17.919Z,14.00
2017-09-24T17:51:46.177Z,13.80
2017-09-24T17:54:14.440Z,13.80
2017-09-24T17:56:41.935Z,13.80
2017-09-24T17:59:09.434Z,13.80
2017-09-24T18:01:36.952Z,13.80
2017-09-24T18:04:04.439Z,13.80
2017-09-24T18:06:31.919Z,13.80
2017-09-24T18:08:59.451Z,13.80
2017-09-24T18:11:26.947Z,13.70
2017-09-24T18:13:54.416Z,13.70
2017-09-24T18:16:21.959Z,13.60
2017-09-24T18:18:49.463Z,13.50
2017-09-24T18:21:16.987Z,13.40
2017-09-24T18:23:44.503Z,13.30
2017-09-24T18:26:12.032Z,13.20
2017-09-24T18:28:40.333Z,13.30
2017-09-24T18:31:08.201Z,13.30
2017-09-24T18:33:35.806Z,13.20
2017-09-24T18:36:05.031Z,13.20
2017-09-24T18:38:33.445Z,13.30
2017-09-24T18:41:00.975Z,13.30
2017-09-24T18:43:29.206Z,13.30
2017-09-24T18:45:57.272Z,13.30
2017-09-24T18:48:24.752Z,13.30
2017-09-24T18:50:53.019Z,13.20
2017-09-24T18:53:20.488Z,13.20
2017-09-24T18:55:48.005Z,13.20
2017-09-24T18:58:15.489Z,13.20
2017-09-24T19:00:43.438Z,13.20
2017-09-24T19:03:11.502Z,13.20
2017-09-24T19:05:38.990Z,13.10
2017-09-24T19:08:06.500Z,13.10
2017-09-24T19:10:34.079Z,13.00
2017-09-24T19:13:02.544Z,13.00
2017-09-24T19:15:30.122Z,13.10
2017-09-24T19:17:58.550Z,13.10
2017-09-24T19:20:26.077Z,13.10
2017-09-24T19:22:53.610Z,13.00
2017-09-24T19:25:21.217Z,13.00
2017-09-24T19:27:48.818Z,13.00
2017-09-24T19:30:19.330Z,12.90
2017-09-24T19:32:47.926Z,12.90
2017-09-24T19:35:16.260Z,12.90
2017-09-24T19:37:44.644Z,12.70
2017-09-24T19:40:12.898Z,12.70
2017-09-24T19:42:40.512Z,12.60
2017-09-24T19:45:08.897Z,12.60
2017-09-24T19:47:36.994Z,12.60
2017-09-24T19:50:05.409Z,12.50
2017-09-24T19:52:34.587Z,12.30
2017-09-24T19:55:02.098Z,12.30
2017-09-24T19:57:29.610Z,12.30
2017-09-24T19:59:57.124Z,12.50
2017-09-24T20:02:25.370Z,12.50
2017-09-24T20:04:52.911Z,12.50
2017-09-24T20:07:20.430Z,12.30
2017-09-24T20:09:48.671Z,12.20
2017-09-24T20:12:16.295Z,12.20
2017-09-24T20:14:43.783Z,12.30
2017-09-24T20:17:12.076Z,12.40
2017-09-24T20:19:39.671Z,12.30
2017-09-24T20:22:07.421Z,12.30
2017-09-24T20:24:36.402Z,12.30
2017-09-24T20:27:03.975Z,12.30
2017-09-24T20:29:32.371Z,12.40
2017-09-24T20:32:01.051Z,12.50
2017-09-24T20:34:29.347Z,12.40
2017-09-24T20:36:56.852Z,12.40
2017-09-24T20:39:24.527Z,12.40
2017-09-24T20:41:52.024Z,12.20
2017-09-24T20:44:19.815Z,12.00
2017-09-24T20:46:47.292Z,11.90
2017-09-24T20:49:15.737Z,11.70
2017-09-24T20:51:43.223Z,11.70
2017-09-24T20:54:10.740Z,11.40
2017-09-24T20:56:38.216Z,11.40
2017-09-24T20:59:05.720Z,11.40
2017-09-24T21:01:33.193Z,11.30
2017-09-24T21:04:00.744Z,11.20
2017-09-24T21:06:28.312Z,11.00
2017-09-24T21:08:56.596Z,11.10
2017-09-24T21:11:24.892Z,11.20
2017-09-24T21:13:52.374Z,11.20
2017-09-24T21:16:19.883Z,11.30
2017-09-24T21:18:47.369Z,11.30
2017-09-24T21:21:15.611Z,11.30
2017-09-24T21:23:43.106Z,11.30
2017-09-24T21:26:10.616Z,11.10
2017-09-24T21:28:38.138Z,10.80
2017-09-24T21:31:05.600Z,10.60
2017-09-24T21:33:33.094Z,10.50
2017-09-24T21:36:00.614Z,10.40
2017-09-24T21:38:28.099Z,10.40
2017-09-24T21:40:55.604Z,10.30
2017-09-24T21:43:23.831Z,10.50
2017-09-24T21:45:51.344Z,10.50
2017-09-24T21:48:19.571Z,10.70
2017-09-24T21:50:47.028Z,10.60
2017-09-24T21:53:14.540Z,10.70
2017-09-24T21:55:42.023Z,10.80
2017-09-24T21:58:09.509Z,10.60
2017-09-24T22:00:36.976Z,10.30
2017-09-24T22:03:04.477Z,10.20
2017-09-24T22:05:31.941Z,10.10
2017-09-24T22:07:59.427Z,10.30
2017-09-24T22:10:26.935Z,10.40
2017-09-24T22:12:55.161Z,10.40
2017-09-24T22:15:22.663Z,10.40
2017-09-24T22:17:50.894Z,10.30
2017-09-24T22:20:18.390Z,10.20
2017-09-24T22:22:45.900Z,10.30
2017-09-24T22:25:13.382Z,10.30
2017-09-24T22:27:40.883Z,10.30
2017-09-24T22:30:09.115Z,10.10
2017-09-24T22:32:36.626Z,10.10
2017-09-24T22:35:04.108Z,10.10
2017-09-24T22:37:31.595Z,9.70
2017-09-24T22:39:59.086Z,9.80
2017-09-24T22:42:27.326Z,9.70
2017-09-24T22:44:54.833Z,9.70
2017-09-24T22:47:23.060Z,9.60
2017-09-24T22:49:50.556Z,9.60
2017-09-24T22:52:18.820Z,9.70
2017-09-24T22:54:46.294Z,9.70
2017-09-24T22:57:14.540Z,9.50
2017-09-24T22:59:42.027Z,9.50
2017-09-24T23:02:10.278Z,9.40
2017-09-24T23:04:37.744Z,9.40
2017-09-24T23:07:05.220Z,9.50
2017-09-24T23:09:33.468Z,9.60
2017-09-24T23:12:00.943Z,9.60
2017-09-24T23:14:28.443Z,9.70
2017-09-24T23:16:55.907Z,9.70
2017-09-24T23:19:23.432Z,9.60
2017-09-24T23:21:51.656Z,9.20
2017-09-24T23:24:19.119Z,9.20
2017-09-24T23:26:46.635Z,8.90
2017-09-24T23:29:14.851Z,8.60
2017-09-24T23:31:42.359Z,8.60
2017-09-24T23:34:10.586Z,9.10
2017-09-24T23:36:38.068Z,9.00
2017-09-24T23:39:05.579Z,9.20
2017-09-24T23:41:33.059Z,9.10
2017-09-24T23:44:00.558Z,9.10
2017-09-24T23:46:28.018Z,9.10
2017-09-24T23:48:55.504Z,8.90
2017-09-24T23:51:22.978Z,9.00
2017-09-24T23:53:50.480Z,9.00
2017-09-24T23:56:17.960Z,8.80
2017-09-24T23:58:46.218Z,8.90
